Time;durP1;ratioP1;P1;durP2;ratioP2;P2;SDS_P1;SDS_P2;PMS_P1;PMS_P2;Temp;Humidity;BMP_temperature;BMP_pressure;BME280_temperature;BME280_humidity;BME280_pressure;Samples;Min_cycle;Max_cycle;Signal;HPM_P1;HPM_P2
2022/03/12 00:00:18;;;;;;;;;;;10.30;99.90;;;;;;6127462;23;19921;-89
2022/03/12 00:02:46;;;;;;;;;;;10.30;99.90;;;;;;6127041;23;20234;-89
2022/03/12 00:05:15;;;;;;;;;;;12.60;99.90;;;;;;6127387;23;19921;-89
2022/03/12 00:07:43;;;;;;;;;;;10.40;99.90;;;;;;6127290;23;19925;-89
2022/03/12 00:10:13;;;;;;;;;;;10.30;99.90;;;;;;6127865;23;20341;-89
2022/03/12 00:12:40;;;;;;;;;;;10.50;99.90;;;;;;6127509;23;19940;-89
2022/03/12 00:15:10;;;;;;;;;;;10.00;99.90;;;;;;6127220;23;19931;-88
2022/03/12 00:17:37;;;;;;;;;;;10.10;99.90;;;;;;6127090;23;19921;-89
2022/03/12 00:20:12;;;;;;;;;;;10.10;99.90;;;;;;6127435;23;20255;-88
2022/03/12 00:22:43;;;;;;;;;;;10.40;99.90;;;;;;6127360;23;19921;-89
2022/03/12 00:25:11;;;;;;;;;;;10.40;99.90;;;;;;6127069;23;19929;-89
2022/03/12 00:27:41;;;;;;;;;;;10.00;99.90;;;;;;6127014;23;20251;-90
2022/03/12 00:30:08;;;;;;;;;;;10.80;99.90;;;;;;6127812;23;19975;-89
2022/03/12 00:32:37;;;;;;;;;;;10.20;99.90;;;;;;6127350;23;20340;-89
2022/03/12 00:35:04;;;;;;;;;;;10.40;99.90;;;;;;6127458;23;19932;-89
2022/03/12 00:37:31;;;;;;;;;;;10.10;99.90;;;;;;6127269;23;19948;-89
2022/03/12 00:39:59;;;;;;;;;;;10.30;99.90;;;;;;6127111;23;20565;-89
2022/03/12 00:42:26;;;;;;;;;;;10.50;99.90;;;;;;6126659;23;19927;-89
2022/03/12 00:44:53;;;;;;;;;;;10.20;99.90;;;;;;6126856;23;19928;-89
2022/03/12 00:47:20;;;;;;;;;;;10.30;99.90;;;;;;6126959;23;19927;-88
2022/03/12 00:49:49;;;;;;;;;;;10.20;99.90;;;;;;6126714;23;19921;-89
2022/03/12 00:52:16;;;;;;;;;;;10.20;99.90;;;;;;6126764;23;19944;-89
2022/03/12 00:54:43;;;;;;;;;;;10.10;99.90;;;;;;6126526;23;19948;-89
2022/03/12 00:57:12;;;;;;;;;;;10.30;99.90;;;;;;6126772;23;19928;-88
2022/03/12 00:59:39;;;;;;;;;;;10.20;99.90;;;;;;6126388;23;19925;-88
2022/03/12 01:02:07;;;;;;;;;;;10.50;99.90;;;;;;6127073;23;19920;-89
2022/03/12 01:04:34;;;;;;;;;;;10.10;99.90;;;;;;6127008;23;19971;-89
2022/03/12 01:07:01;;;;;;;;;;;10.10;99.90;;;;;;6127274;23;20260;-89
2022/03/12 01:09:28;;;;;;;;;;;9.60;99.90;;;;;;6126615;23;19921;-89
2022/03/12 01:11:55;;;;;;;;;;;10.20;99.90;;;;;;6125832;23;19921;-89
2022/03/12 01:14:24;;;;;;;;;;;10.60;99.90;;;;;;6126707;23;19992;-89
2022/03/12 01:16:51;;;;;;;;;;;10.10;99.90;;;;;;6126463;23;19928;-89
2022/03/12 01:19:18;;;;;;;;;;;10.30;99.90;;;;;;6126254;23;20011;-89
2022/03/12 01:21:45;;;;;;;;;;;10.10;99.90;;;;;;6126281;23;19921;-89
2022/03/12 01:24:12;;;;;;;;;;;10.00;99.90;;;;;;6126442;23;19925;-89
2022/03/12 01:26:39;;;;;;;;;;;10.00;99.90;;;;;;6126223;23;19925;-89
2022/03/12 01:29:07;;;;;;;;;;;10.00;99.90;;;;;;6126432;23;19940;-90
2022/03/12 01:31:35;;;;;;;;;;;10.00;99.90;;;;;;6127049;23;19920;-90
2022/03/12 01:34:03;;;;;;;;;;;10.00;99.90;;;;;;6126445;23;19920;-90
2022/03/12 01:36:30;;;;;;;;;;;10.10;99.90;;;;;;6126366;23;19937;-89
2022/03/12 01:38:57;;;;;;;;;;;10.00;99.90;;;;;;6126638;23;19925;-89
2022/03/12 01:41:25;;;;;;;;;;;9.90;99.90;;;;;;6126070;23;20359;-89
2022/03/12 01:43:56;;;;;;;;;;;10.70;99.90;;;;;;6126455;23;19921;-90
2022/03/12 01:46:29;;;;;;;;;;;10.00;99.90;;;;;;6126663;23;19921;-90
2022/03/12 01:48:59;;;;;;;;;;;10.50;99.90;;;;;;6126311;23;19928;-89
2022/03/12 01:51:26;;;;;;;;;;;10.40;99.90;;;;;;6126685;23;19921;-90
2022/03/12 01:53:53;;;;;;;;;;;10.20;99.90;;;;;;6126683;23;19928;-90
2022/03/12 01:56:20;;;;;;;;;;;10.10;99.90;;;;;;6127935;23;19936;-89
2022/03/12 01:58:48;;;;;;;;;;;9.90;99.90;;;;;;6129190;23;20255;-89
2022/03/12 02:01:15;;;;;;;;;;;9.90;99.90;;;;;;6128986;23;19998;-90
2022/03/12 02:03:42;;;;;;;;;;;10.00;99.90;;;;;;6129188;23;19949;-90
2022/03/12 02:06:11;;;;;;;;;;;9.80;99.90;;;;;;6129472;23;19927;-89
2022/03/12 02:08:38;;;;;;;;;;;9.90;99.90;;;;;;6129350;23;19921;-90
2022/03/12 02:11:07;;;;;;;;;;;10.00;99.90;;;;;;6128878;23;19960;-89
2022/03/12 02:13:37;;;;;;;;;;;10.20;99.90;;;;;;6128926;23;19921;-89
2022/03/12 02:16:07;;;;;;;;;;;10.60;99.90;;;;;;6128900;23;19925;-88
2022/03/12 02:18:34;;;;;;;;;;;10.00;99.90;;;;;;6128723;23;20337;-89
2022/03/12 02:21:01;;;;;;;;;;;9.50;99.90;;;;;;6128728;23;19921;-88
2022/03/12 02:23:29;;;;;;;;;;;8.30;99.90;;;;;;6129152;23;19927;-88
2022/03/12 02:26:02;;;;;;;;;;;10.30;99.90;;;;;;6129097;23;19953;-88
2022/03/12 02:28:29;;;;;;;;;;;11.60;99.90;;;;;;6128886;23;19921;-90
2022/03/12 02:30:57;;;;;;;;;;;10.40;99.90;;;;;;6129049;23;20336;-90
2022/03/12 02:33:28;;;;;;;;;;;10.10;99.90;;;;;;6128439;23;19928;-90
2022/03/12 02:35:56;;;;;;;;;;;10.10;99.90;;;;;;6128567;23;20351;-90
2022/03/12 02:38:23;;;;;;;;;;;9.70;99.90;;;;;;6128466;23;19921;-90
2022/03/12 02:40:50;;;;;;;;;;;10.30;99.90;;;;;;6128483;23;19948;-89
2022/03/12 02:43:21;;;;;;;;;;;10.10;99.90;;;;;;6128829;23;19929;-90
2022/03/12 02:45:51;;;;;;;;;;;9.90;99.90;;;;;;6121405;23;19921;-90
2022/03/12 02:48:18;;;;;;;;;;;10.30;99.90;;;;;;6130717;23;20337;-88
2022/03/12 02:50:45;;;;;;;;;;;12.20;99.90;;;;;;6133257;23;20248;-88
2022/03/12 02:53:12;;;;;;;;;;;10.30;99.90;;;;;;6129734;23;19996;-89
2022/03/12 02:55:41;;;;;;;;;;;10.10;99.90;;;;;;6126322;23;19925;-89
2022/03/12 02:58:10;;;;;;;;;;;9.90;99.90;;;;;;6125874;23;20403;-90
2022/03/12 03:00:39;;;;;;;;;;;9.80;99.90;;;;;;6127781;23;19972;-89
2022/03/12 03:03:06;;;;;;;;;;;10.20;99.90;;;;;;6126200;23;19961;-90
2022/03/12 03:05:46;;;;;;;;;;;10.10;99.90;;;;;;6127939;23;19925;-89
2022/03/12 03:08:18;;;;;;;;;;;10.10;99.90;;;;;;6128056;23;19925;-89
2022/03/12 03:10:46;;;;;;;;;;;10.00;99.90;;;;;;6128294;23;19924;-88
2022/03/12 03:13:30;;;;;;;;;;;10.50;99.90;;;;;;6127719;23;20308;-90
2022/03/12 03:16:00;;;;;;;;;;;9.70;99.90;;;;;;6127661;23;19921;-88
2022/03/12 03:18:29;;;;;;;;;;;10.60;99.90;;;;;;6127571;23;19927;-88
2022/03/12 03:20:57;;;;;;;;;;;10.00;99.90;;;;;;6128047;23;20255;-88
2022/03/12 03:23:25;;;;;;;;;;;10.40;99.90;;;;;;6128067;23;19935;-88
2022/03/12 03:25:52;;;;;;;;;;;10.00;99.90;;;;;;6128299;23;20000;-90
2022/03/12 03:28:19;;;;;;;;;;;10.00;99.90;;;;;;6128730;23;20274;-89
2022/03/12 03:30:46;;;;;;;;;;;10.60;99.90;;;;;;6128049;23;20333;-89
2022/03/12 03:33:15;;;;;;;;;;;9.90;99.90;;;;;;6128785;23;19921;-89
2022/03/12 03:35:42;;;;;;;;;;;9.80;99.90;;;;;;6128506;23;19925;-89
2022/03/12 03:38:09;;;;;;;;;;;10.10;99.90;;;;;;6127957;23;19921;-89
2022/03/12 03:40:40;;;;;;;;;;;10.00;99.90;;;;;;6128089;23;19920;-89
2022/03/12 03:43:09;;;;;;;;;;;9.90;99.90;;;;;;6127786;23;20007;-89
2022/03/12 03:45:36;;;;;;;;;;;10.00;99.90;;;;;;6127988;23;20355;-89
2022/03/12 03:48:03;;;;;;;;;;;10.90;99.90;;;;;;6127764;23;19921;-89
2022/03/12 03:50:31;;;;;;;;;;;10.10;99.90;;;;;;6128161;23;20333;-88
2022/03/12 03:53:01;;;;;;;;;;;10.10;99.90;;;;;;6128101;23;19921;-89
2022/03/12 03:55:28;;;;;;;;;;;9.90;99.90;;;;;;6128219;23;19948;-89
2022/03/12 03:57:56;;;;;;;;;;;10.10;99.90;;;;;;6127759;23;20324;-89
2022/03/12 04:00:25;;;;;;;;;;;10.00;99.90;;;;;;6127708;23;19995;-89
2022/03/12 04:02:55;;;;;;;;;;;9.90;99.90;;;;;;6127588;23;19932;-88
2022/03/12 04:05:22;;;;;;;;;;;10.10;99.90;;;;;;6127824;23;19932;-89
2022/03/12 04:07:50;;;;;;;;;;;9.90;99.90;;;;;;6127797;23;20388;-89
2022/03/12 04:10:17;;;;;;;;;;;9.80;99.90;;;;;;6127800;23;20248;-89
2022/03/12 04:12:45;;;;;;;;;;;10.00;99.90;;;;;;6127670;23;19921;-89
2022/03/12 04:15:13;;;;;;;;;;;9.80;99.90;;;;;;6127843;23;19963;-90
2022/03/12 04:17:43;;;;;;;;;;;10.10;99.90;;;;;;6128091;23;20241;-89
2022/03/12 04:20:10;;;;;;;;;;;9.80;99.90;;;;;;6127567;23;20364;-90
2022/03/12 04:22:38;;;;;;;;;;;9.70;99.90;;;;;;6127658;23;20402;-89
2022/03/12 04:25:11;;;;;;;;;;;9.50;99.90;;;;;;6127916;23;19932;-89
2022/03/12 04:27:42;;;;;;;;;;;9.70;99.90;;;;;;6128036;23;19921;-89
2022/03/12 04:30:10;;;;;;;;;;;9.80;99.90;;;;;;6127996;23;19921;-90
2022/03/12 04:32:37;;;;;;;;;;;8.50;99.90;;;;;;6127998;23;19921;-90
2022/03/12 04:35:05;;;;;;;;;;;10.10;99.90;;;;;;6128325;23;19945;-89
2022/03/12 04:37:32;;;;;;;;;;;10.00;99.90;;;;;;6128038;23;20343;-89
2022/03/12 04:39:59;;;;;;;;;;;9.70;99.90;;;;;;6128307;23;19944;-90
2022/03/12 04:42:27;;;;;;;;;;;10.00;99.90;;;;;;6127818;23;19925;-89
2022/03/12 04:44:54;;;;;;;;;;;9.60;99.90;;;;;;6128020;23;19927;-90
2022/03/12 04:47:21;;;;;;;;;;;9.50;99.90;;;;;;6127876;23;19928;-89
2022/03/12 04:49:48;;;;;;;;;;;9.60;99.90;;;;;;6126648;23;19928;-88
2022/03/12 04:52:15;;;;;;;;;;;9.90;99.90;;;;;;6127852;23;20004;-89
2022/03/12 04:54:42;;;;;;;;;;;9.70;99.90;;;;;;6128032;23;19927;-90
2022/03/12 04:57:08;;;;;;;;;;;9.40;99.90;;;;;;6127271;23;19921;-89
2022/03/12 04:59:37;;;;;;;;;;;9.70;99.90;;;;;;6127754;23;19928;-88
2022/03/12 05:02:05;;;;;;;;;;;9.70;99.90;;;;;;6127960;23;19921;-89
2022/03/12 05:04:32;;;;;;;;;;;9.50;99.90;;;;;;6127384;23;20304;-88
2022/03/12 05:06:59;;;;;;;;;;;9.40;99.90;;;;;;6127632;23;19921;-89
2022/03/12 05:09:26;;;;;;;;;;;9.50;99.90;;;;;;6127451;23;19928;-88
2022/03/12 05:11:53;;;;;;;;;;;9.40;99.90;;;;;;6127812;23;19996;-89
2022/03/12 05:14:20;;;;;;;;;;;9.90;99.90;;;;;;6127107;23;20000;-88
2022/03/12 05:16:50;;;;;;;;;;;9.70;99.90;;;;;;6127063;23;19953;-88
2022/03/12 05:19:17;;;;;;;;;;;9.40;99.90;;;;;;6127108;23;20263;-88
2022/03/12 05:21:44;;;;;;;;;;;9.40;99.90;;;;;;6126801;23;19987;-89
2022/03/12 05:24:13;;;;;;;;;;;9.20;99.90;;;;;;6126845;23;19924;-89
2022/03/12 05:26:40;;;;;;;;;;;9.50;99.90;;;;;;6126543;23;19921;-89
2022/03/12 05:29:07;;;;;;;;;;;9.30;99.90;;;;;;6126840;23;19924;-89
2022/03/12 05:31:34;;;;;;;;;;;9.80;99.90;;;;;;6126164;23;19921;-89
2022/03/12 05:34:02;;;;;;;;;;;9.80;99.90;;;;;;6127488;23;19921;-89
2022/03/12 05:36:31;;;;;;;;;;;9.40;99.90;;;;;;6126011;23;21304;-89
2022/03/12 05:38:57;;;;;;;;;;;9.40;99.90;;;;;;6127271;23;20304;-89
2022/03/12 05:41:26;;;;;;;;;;;9.50;99.90;;;;;;6126901;23;19968;-89
2022/03/12 05:43:53;;;;;;;;;;;9.10;99.90;;;;;;6126911;23;19921;-90
2022/03/12 05:46:21;;;;;;;;;;;9.20;99.90;;;;;;6127965;23;19940;-89
2022/03/12 05:48:47;;;;;;;;;;;9.20;99.90;;;;;;6127044;23;19921;-89
2022/03/12 05:51:16;;;;;;;;;;;9.30;99.90;;;;;;6127790;23;19928;-90
2022/03/12 05:53:44;;;;;;;;;;;8.10;99.90;;;;;;6127381;23;19925;-89
2022/03/12 05:56:17;;;;;;;;;;;9.30;99.90;;;;;;6127472;23;19933;-90
2022/03/12 05:58:45;;;;;;;;;;;9.70;99.90;;;;;;6127129;23;19995;-89
2022/03/12 06:01:12;;;;;;;;;;;9.70;99.90;;;;;;6127419;23;20004;-89
2022/03/12 06:03:39;;;;;;;;;;;9.30;99.90;;;;;;6127224;23;19921;-89
2022/03/12 06:06:06;;;;;;;;;;;9.30;99.90;;;;;;6127250;23;19925;-89
2022/03/12 06:08:34;;;;;;;;;;;8.10;99.90;;;;;;6127757;23;19925;-89
2022/03/12 06:11:01;;;;;;;;;;;9.30;99.90;;;;;;6127239;23;19921;-90
2022/03/12 06:13:29;;;;;;;;;;;9.30;99.90;;;;;;6127077;23;20449;-88
2022/03/12 06:15:58;;;;;;;;;;;11.80;99.90;;;;;;6127172;23;19921;-90
2022/03/12 06:18:26;;;;;;;;;;;9.00;99.90;;;;;;6127060;23;19964;-90
2022/03/12 06:20:53;;;;;;;;;;;9.00;99.90;;;;;;6127421;23;19972;-90
2022/03/12 06:23:20;;;;;;;;;;;9.00;99.90;;;;;;6126799;23;19928;-89
2022/03/12 06:25:49;;;;;;;;;;;8.90;99.90;;;;;;6126970;23;19927;-89
2022/03/12 06:28:17;;;;;;;;;;;8.90;99.90;;;;;;6127106;23;19975;-89
2022/03/12 06:30:44;;;;;;;;;;;8.80;99.90;;;;;;6131761;23;19921;-88
2022/03/12 06:33:10;;;;;;;;;;;9.20;99.90;;;;;;6132324;23;19988;-88
2022/03/12 06:35:37;;;;;;;;;;;8.90;99.90;;;;;;6128848;23;19928;-89
2022/03/12 06:38:04;;;;;;;;;;;9.10;99.90;;;;;;6128101;23;19928;-89
2022/03/12 06:40:32;;;;;;;;;;;8.70;99.90;;;;;;6128062;23;20292;-88
2022/03/12 06:43:05;;;;;;;;;;;8.70;99.90;;;;;;6127887;23;19921;-90
2022/03/12 06:45:32;;;;;;;;;;;9.20;99.90;;;;;;6128842;23;19928;-89
2022/03/12 06:48:01;;;;;;;;;;;9.00;99.90;;;;;;6128563;23;20403;-90
2022/03/12 06:50:29;;;;;;;;;;;8.40;99.90;;;;;;6128869;23;19921;-89
2022/03/12 06:52:56;;;;;;;;;;;8.60;99.90;;;;;;6128708;23;20336;-89
2022/03/12 06:55:24;;;;;;;;;;;8.60;99.90;;;;;;6128711;23;19932;-89
2022/03/12 06:57:53;;;;;;;;;;;8.50;99.90;;;;;;6128788;23;19928;-89
2022/03/12 07:00:22;;;;;;;;;;;8.50;99.90;;;;;;6128657;23;19959;-89
2022/03/12 07:02:49;;;;;;;;;;;8.90;99.90;;;;;;6128151;23;19928;-88
2022/03/12 07:05:16;;;;;;;;;;;8.80;99.90;;;;;;6128605;23;19927;-89
2022/03/12 07:07:43;;;;;;;;;;;8.40;99.90;;;;;;6128442;23;19925;-90
2022/03/12 07:10:10;;;;;;;;;;;8.80;99.90;;;;;;6128292;23;19925;-89
2022/03/12 07:12:37;;;;;;;;;;;7.20;99.90;;;;;;6128485;23;20336;-89
2022/03/12 07:15:05;;;;;;;;;;;8.50;99.90;;;;;;6128174;23;19925;-90
2022/03/12 07:17:34;;;;;;;;;;;8.60;99.90;;;;;;6128857;23;19928;-89
2022/03/12 07:20:03;;;;;;;;;;;8.50;99.90;;;;;;6128265;23;19941;-89
2022/03/12 07:22:30;;;;;;;;;;;8.70;99.90;;;;;;6128070;23;20008;-88
2022/03/12 07:24:57;;;;;;;;;;;8.60;99.90;;;;;;6129111;23;19925;-89
2022/03/12 07:27:25;;;;;;;;;;;8.70;99.90;;;;;;6128190;23;19925;-89
2022/03/12 07:29:52;;;;;;;;;;;8.50;99.90;;;;;;6127985;23;19921;-88
2022/03/12 07:32:19;;;;;;;;;;;8.50;99.90;;;;;;6127919;23;19920;-89
2022/03/12 07:34:47;;;;;;;;;;;8.40;99.90;;;;;;6128023;23;19921;-89
2022/03/12 07:37:15;;;;;;;;;;;8.70;99.90;;;;;;6127497;23;19956;-88
2022/03/12 07:39:42;;;;;;;;;;;8.40;99.90;;;;;;6127791;23;19944;-89
2022/03/12 07:42:09;;;;;;;;;;;7.30;99.90;;;;;;6127127;23;19921;-89
2022/03/12 07:44:36;;;;;;;;;;;8.40;99.90;;;;;;6127097;23;19921;-89
2022/03/12 07:47:03;;;;;;;;;;;8.60;99.90;;;;;;6127839;23;19927;-89
2022/03/12 07:49:30;;;;;;;;;;;9.00;99.90;;;;;;6128093;23;19920;-88
2022/03/12 07:51:58;;;;;;;;;;;11.10;99.90;;;;;;6128301;23;19925;-89
2022/03/12 07:54:25;;;;;;;;;;;8.60;99.90;;;;;;6127634;23;19928;-90
2022/03/12 07:56:52;;;;;;;;;;;8.70;99.90;;;;;;6127578;23;20340;-89
2022/03/12 07:59:20;;;;;;;;;;;9.20;99.90;;;;;;6127754;23;19921;-89
2022/03/12 08:01:48;;;;;;;;;;;8.70;99.90;;;;;;6127664;23;20387;-90
2022/03/12 08:04:17;;;;;;;;;;;9.00;99.90;;;;;;6127458;23;20008;-89
2022/03/12 08:06:50;;;;;;;;;;;9.00;99.90;;;;;;6128244;23;19932;-90
2022/03/12 08:09:22;;;;;;;;;;;9.60;99.90;;;;;;6129225;23;20012;-89
2022/03/12 08:11:50;;;;;;;;;;;9.70;99.90;;;;;;6127935;23;19991;-89
2022/03/12 08:14:24;;;;;;;;;;;9.00;99.90;;;;;;6127905;23;19921;-88
2022/03/12 08:16:56;;;;;;;;;;;9.10;99.90;;;;;;6127711;23;20419;-89
2022/03/12 08:19:26;;;;;;;;;;;9.10;99.90;;;;;;6128450;23;20267;-89
2022/03/12 08:21:58;;;;;;;;;;;9.10;99.90;;;;;;6127787;23;19921;-89
2022/03/12 08:24:29;;;;;;;;;;;9.00;99.90;;;;;;6128598;23;20018;-86
2022/03/12 08:27:01;;;;;;;;;;;8.80;99.90;;;;;;6127852;23;19976;-90
2022/03/12 08:29:29;;;;;;;;;;;9.30;99.90;;;;;;6128267;23;20238;-89
2022/03/12 08:31:55;;;;;;;;;;;8.60;99.90;;;;;;6128154;23;20388;-88
2022/03/12 08:34:22;;;;;;;;;;;9.10;99.90;;;;;;6128137;23;20259;-89
2022/03/12 08:36:49;;;;;;;;;;;9.10;99.90;;;;;;6127724;23;20356;-89
2022/03/12 08:39:17;;;;;;;;;;;9.40;99.90;;;;;;6128036;23;19952;-88
2022/03/12 08:41:49;;;;;;;;;;;9.20;99.90;;;;;;6127474;23;19931;-88
2022/03/12 08:44:19;;;;;;;;;;;9.20;99.90;;;;;;6128369;23;20008;-89
2022/03/12 08:46:46;;;;;;;;;;;9.90;99.90;;;;;;6128979;23;19921;-90
2022/03/12 08:49:16;;;;;;;;;;;9.50;99.90;;;;;;6127057;23;19928;-88
2022/03/12 08:51:43;;;;;;;;;;;9.80;99.90;;;;;;6127796;23;19928;-89
2022/03/12 08:54:14;;;;;;;;;;;9.50;99.90;;;;;;6128666;23;19925;-89
2022/03/12 08:56:41;;;;;;;;;;;9.60;99.90;;;;;;6129530;23;19921;-89
2022/03/12 08:59:09;;;;;;;;;;;10.80;99.90;;;;;;6129296;23;19931;-86
2022/03/12 09:01:37;;;;;;;;;;;9.90;99.90;;;;;;6127799;23;19921;-90
2022/03/12 09:04:10;;;;;;;;;;;9.40;99.90;;;;;;6128282;23;20010;-89
2022/03/12 09:06:37;;;;;;;;;;;9.80;99.90;;;;;;6127036;23;19937;-89
2022/03/12 09:09:07;;;;;;;;;;;8.90;99.90;;;;;;6130454;23;19925;-89
2022/03/12 09:11:33;;;;;;;;;;;9.30;99.90;;;;;;6127091;23;19921;-89
2022/03/12 09:14:00;;;;;;;;;;;9.50;99.90;;;;;;6128939;23;19927;-87
2022/03/12 09:16:30;;;;;;;;;;;9.60;99.90;;;;;;6128250;23;19925;-89
2022/03/12 09:18:57;;;;;;;;;;;10.20;99.90;;;;;;6128098;23;19921;-88
2022/03/12 09:21:24;;;;;;;;;;;10.20;99.90;;;;;;6129807;23;19984;-88
2022/03/12 09:23:56;;;;;;;;;;;7.90;99.90;;;;;;6130195;23;19940;-89
2022/03/12 09:26:22;;;;;;;;;;;10.30;99.90;;;;;;6128885;23;19929;-89
2022/03/12 09:28:51;;;;;;;;;;;10.20;99.90;;;;;;6131098;23;19921;-89
2022/03/12 09:31:19;;;;;;;;;;;10.70;99.90;;;;;;6128838;23;19943;-89
2022/03/12 09:33:49;;;;;;;;;;;10.50;99.90;;;;;;6129070;23;19996;-89
2022/03/12 09:36:16;;;;;;;;;;;10.10;99.90;;;;;;6127642;23;19921;-89
2022/03/12 09:38:45;;;;;;;;;;;10.30;99.90;;;;;;6128625;23;19921;-89
2022/03/12 09:41:12;;;;;;;;;;;10.80;99.90;;;;;;6130568;23;19921;-89
2022/03/12 09:43:39;;;;;;;;;;;10.30;99.90;;;;;;6126941;23;19960;-89
2022/03/12 09:46:08;;;;;;;;;;;10.10;99.90;;;;;;6129789;23;19921;-90
2022/03/12 09:48:36;;;;;;;;;;;10.70;99.90;;;;;;6127480;23;19932;-90
2022/03/12 09:51:04;;;;;;;;;;;10.40;99.90;;;;;;6128454;23;19928;-88
2022/03/12 09:53:31;;;;;;;;;;;10.20;99.90;;;;;;6127641;23;19921;-87
2022/03/12 09:55:59;;;;;;;;;;;10.20;99.90;;;;;;6127126;23;20035;-90
2022/03/12 09:58:26;;;;;;;;;;;10.30;99.90;;;;;;6126811;23;19921;-89
2022/03/12 10:00:53;;;;;;;;;;;11.40;99.90;;;;;;6127933;23;20354;-89
2022/03/12 10:03:21;;;;;;;;;;;10.40;99.90;;;;;;6130208;23;19928;-90
2022/03/12 10:05:48;;;;;;;;;;;10.60;99.90;;;;;;6128458;23;20218;-89
2022/03/12 10:08:18;;;;;;;;;;;10.50;99.90;;;;;;6129455;23;19925;-89
2022/03/12 10:10:47;;;;;;;;;;;10.40;99.90;;;;;;6137536;23;19921;-87
2022/03/12 10:13:14;;;;;;;;;;;10.40;99.90;;;;;;6130505;23;19921;-89
2022/03/12 10:15:42;;;;;;;;;;;10.60;99.90;;;;;;6127796;23;19944;-88
2022/03/12 10:18:09;;;;;;;;;;;10.40;99.90;;;;;;6129387;23;19930;-89
2022/03/12 10:20:37;;;;;;;;;;;10.20;99.90;;;;;;6132029;23;20371;-89
2022/03/12 10:23:07;;;;;;;;;;;10.70;99.90;;;;;;6129694;23;20396;-88
2022/03/12 10:25:35;;;;;;;;;;;10.30;99.90;;;;;;6133683;23;19979;-88
2022/03/12 10:28:02;;;;;;;;;;;9.60;99.90;;;;;;6130496;23;19927;-87
2022/03/12 10:30:29;;;;;;;;;;;10.60;99.90;;;;;;6128313;23;19976;-88
2022/03/12 10:32:56;;;;;;;;;;;10.30;99.90;;;;;;6128420;23;19921;-88
2022/03/12 10:35:24;;;;;;;;;;;10.30;99.90;;;;;;6129772;23;19928;-89
2022/03/12 10:37:52;;;;;;;;;;;10.00;99.90;;;;;;6129748;23;20000;-88
2022/03/12 10:40:21;;;;;;;;;;;11.00;99.90;;;;;;6130212;23;19921;-88
2022/03/12 10:42:52;;;;;;;;;;;10.60;99.90;;;;;;6129247;23;19921;-89
2022/03/12 10:45:19;;;;;;;;;;;10.90;99.90;;;;;;6130674;23;19976;-89
2022/03/12 10:47:47;;;;;;;;;;;10.90;99.90;;;;;;6129383;23;19928;-89
2022/03/12 10:50:21;;;;;;;;;;;11.00;99.90;;;;;;6129663;23;19933;-88
2022/03/12 10:52:49;;;;;;;;;;;11.10;99.90;;;;;;6133638;23;19961;-90
2022/03/12 10:55:23;;;;;;;;;;;11.00;99.90;;;;;;6129225;23;19947;-91
2022/03/12 10:57:59;;;;;;;;;;;11.20;99.90;;;;;;6129891;23;19929;-90
2022/03/12 11:00:32;;;;;;;;;;;11.30;99.90;;;;;;6134507;23;19991;-89
2022/03/12 11:03:00;;;;;;;;;;;11.10;99.90;;;;;;6130674;23;19924;-89
2022/03/12 11:05:35;;;;;;;;;;;11.00;99.90;;;;;;6131133;23;19925;-90
2022/03/12 11:08:10;;;;;;;;;;;12.30;99.90;;;;;;6129218;23;19921;-89
2022/03/12 11:10:43;;;;;;;;;;;11.30;99.90;;;;;;6130442;23;19921;-88
2022/03/12 11:13:25;;;;;;;;;;;11.90;99.90;;;;;;6129534;23;19929;-89
2022/03/12 11:16:10;;;;;;;;;;;11.80;99.90;;;;;;6127583;23;19921;-89
2022/03/12 11:18:41;;;;;;;;;;;11.30;99.90;;;;;;6131057;23;19921;-88
2022/03/12 11:21:08;;;;;;;;;;;10.20;99.90;;;;;;6132486;23;19921;-88
2022/03/12 11:23:35;;;;;;;;;;;11.60;99.90;;;;;;6131174;23;19996;-89
2022/03/12 11:26:06;;;;;;;;;;;11.60;99.90;;;;;;6130235;23;20242;-89
2022/03/12 11:28:37;;;;;;;;;;;11.50;99.90;;;;;;6128989;23;19921;-90
2022/03/12 11:31:06;;;;;;;;;;;11.70;99.90;;;;;;6141111;23;19927;-91
2022/03/12 11:33:34;;;;;;;;;;;11.70;99.90;;;;;;6128778;23;19936;-90
2022/03/12 11:36:08;;;;;;;;;;;10.30;99.90;;;;;;6131007;23;19929;-89
2022/03/12 11:38:35;;;;;;;;;;;12.10;99.90;;;;;;6129276;23;19935;-90
2022/03/12 11:41:04;;;;;;;;;;;11.70;99.90;;;;;;6130036;23;19928;-90
2022/03/12 11:43:32;;;;;;;;;;;12.10;99.90;;;;;;6128372;23;19975;-89
2022/03/12 11:46:00;;;;;;;;;;;11.80;99.90;;;;;;6130154;23;20244;-89
2022/03/12 11:48:28;;;;;;;;;;;11.80;99.90;;;;;;6129128;23;20590;-89
2022/03/12 11:50:55;;;;;;;;;;;11.90;99.90;;;;;;6128440;23;19968;-89
2022/03/12 11:53:22;;;;;;;;;;;11.80;99.90;;;;;;6127858;23;19928;-90
2022/03/12 11:55:50;;;;;;;;;;;11.80;99.90;;;;;;6128357;23;19921;-88
2022/03/12 11:58:17;;;;;;;;;;;12.00;99.90;;;;;;6131263;23;19925;-89
2022/03/12 12:00:45;;;;;;;;;;;12.00;99.90;;;;;;6128891;23;20277;-88
2022/03/12 12:03:17;;;;;;;;;;;12.00;99.90;;;;;;6128930;23;19943;-88
2022/03/12 12:05:47;;;;;;;;;;;12.20;99.90;;;;;;6128880;23;19921;-88
2022/03/12 12:08:21;;;;;;;;;;;12.30;99.90;;;;;;6128772;23;19928;-90
2022/03/12 12:13:30;;;;;;;;;;;12.30;99.90;;;;;;6127619;23;19921;-89
2022/03/12 12:15:58;;;;;;;;;;;12.60;99.90;;;;;;6128773;23;20069;-90
2022/03/12 12:18:38;;;;;;;;;;;12.50;99.90;;;;;;6127822;23;19931;-90
2022/03/12 12:21:06;;;;;;;;;;;12.60;99.90;;;;;;6129421;23;20356;-90
2022/03/12 12:23:33;;;;;;;;;;;14.90;99.90;;;;;;6130198;23;19928;-90
2022/03/12 12:26:07;;;;;;;;;;;12.70;99.90;;;;;;6128644;23;19976;-89
2022/03/12 12:28:45;;;;;;;;;;;12.70;99.90;;;;;;6128723;23;19921;-90
2022/03/12 12:31:16;;;;;;;;;;;12.80;99.90;;;;;;6128686;23;19943;-91
2022/03/12 12:33:45;;;;;;;;;;;13.00;99.90;;;;;;6130775;23;19987;-89
2022/03/12 12:36:16;;;;;;;;;;;13.10;99.90;;;;;;6127423;23;19977;-91
2022/03/12 12:39:05;;;;;;;;;;;13.20;99.90;;;;;;6128923;23;19925;-91
2022/03/12 12:41:51;;;;;;;;;;;12.70;99.90;;;;;;6127815;23;19964;-91
2022/03/12 12:44:39;;;;;;;;;;;12.40;99.90;;;;;;6129624;23;19925;-91
2022/03/12 12:47:06;;;;;;;;;;;12.70;99.90;;;;;;6127807;23;20335;-89
2022/03/12 12:49:35;;;;;;;;;;;12.10;99.90;;;;;;6127915;23;20337;-88
2022/03/12 12:52:02;;;;;;;;;;;12.40;99.90;;;;;;6126954;23;20277;-90
2022/03/12 12:54:48;;;;;;;;;;;12.50;99.90;;;;;;6126980;23;20054;-90
2022/03/12 12:57:24;;;;;;;;;;;12.10;99.90;;;;;;6130023;23;19992;-89
2022/03/12 13:02:42;;;;;;;;;;;12.70;99.90;;;;;;6128089;23;19921;-90
2022/03/12 13:05:12;;;;;;;;;;;12.60;99.90;;;;;;6135601;23;19921;-90
2022/03/12 13:07:52;;;;;;;;;;;12.90;99.90;;;;;;6128818;23;19948;-91
2022/03/12 13:10:25;;;;;;;;;;;12.90;99.90;;;;;;6129254;23;19927;-87
2022/03/12 13:12:53;;;;;;;;;;;13.30;99.90;;;;;;6130925;23;20321;-91
2022/03/12 13:15:33;;;;;;;;;;;13.10;99.90;;;;;;6129936;23;19925;-90
2022/03/12 13:18:03;;;;;;;;;;;13.10;99.90;;;;;;6128911;23;19988;-90
2022/03/12 13:20:42;;;;;;;;;;;13.10;99.90;;;;;;6130212;23;19921;-90
2022/03/12 13:23:12;;;;;;;;;;;13.50;99.90;;;;;;6131107;23;19968;-90
2022/03/12 13:25:57;;;;;;;;;;;13.50;99.90;;;;;;6129758;23;20341;-90
2022/03/12 13:28:39;;;;;;;;;;;14.70;99.90;;;;;;6130927;23;19921;-90
2022/03/12 13:31:18;;;;;;;;;;;13.60;99.90;;;;;;6128157;23;19921;-89
2022/03/12 13:33:49;;;;;;;;;;;15.50;99.90;;;;;;6127798;23;19920;-91
2022/03/12 13:36:22;;;;;;;;;;;13.50;99.90;;;;;;6127423;23;20336;-90
2022/03/12 13:38:53;;;;;;;;;;;13.60;99.90;;;;;;6127764;23;19937;-91
2022/03/12 13:41:21;;;;;;;;;;;12.90;99.90;;;;;;6129851;23;20347;-91
2022/03/12 13:43:49;;;;;;;;;;;13.50;99.90;;;;;;6126622;23;19925;-90
2022/03/12 13:46:18;;;;;;;;;;;13.50;99.90;;;;;;6130730;23;19932;-90
2022/03/12 13:48:57;;;;;;;;;;;13.50;99.90;;;;;;6100375;23;20346;-92
2022/03/12 13:51:25;;;;;;;;;;;12.50;99.90;;;;;;6128628;23;19921;-88
2022/03/12 13:53:53;;;;;;;;;;;14.10;99.90;;;;;;6130045;23;19921;-89
2022/03/12 13:56:24;;;;;;;;;;;13.50;99.90;;;;;;6129749;23;19921;-90
2022/03/12 13:58:51;;;;;;;;;;;13.80;99.90;;;;;;6129290;23;19929;-89
2022/03/12 14:01:29;;;;;;;;;;;13.70;99.90;;;;;;6129280;23;19976;-90
2022/03/12 14:04:01;;;;;;;;;;;13.10;99.70;;;;;;6130375;23;19960;-91
2022/03/12 14:06:34;;;;;;;;;;;14.10;99.90;;;;;;6127916;23;19925;-90
2022/03/12 14:09:01;;;;;;;;;;;14.40;99.80;;;;;;6128888;23;19944;-90
2022/03/12 14:11:30;;;;;;;;;;;14.30;99.90;;;;;;6130885;23;19925;-90
2022/03/12 14:14:08;;;;;;;;;;;12.30;98.50;;;;;;6129245;23;19921;-91
2022/03/12 14:16:38;;;;;;;;;;;13.60;98.60;;;;;;6129961;23;20000;-91
2022/03/12 14:19:07;;;;;;;;;;;13.90;98.60;;;;;;6130482;23;19992;-91
2022/03/12 14:21:40;;;;;;;;;;;13.00;98.70;;;;;;6128268;23;19921;-91
2022/03/12 14:24:08;;;;;;;;;;;13.60;98.00;;;;;;6128412;23;19921;-90
2022/03/12 14:26:43;;;;;;;;;;;13.10;98.50;;;;;;6129307;23;20001;-90
2022/03/12 14:29:20;;;;;;;;;;;13.40;98.20;;;;;;6129245;23;20340;-89
2022/03/12 14:32:02;;;;;;;;;;;12.40;98.80;;;;;;6130635;23;19947;-90
2022/03/12 14:34:31;;;;;;;;;;;14.70;97.80;;;;;;6131452;23;19920;-91
2022/03/12 14:37:03;;;;;;;;;;;10.90;98.00;;;;;;6103637;23;19953;-91